sensor_id;sensor_type;location;lat;lon;timestamp;temperature;humidity
77865;DHT22;67061;48.524;9.040;2024-02-21T00:01:50;2.60;99.90
77865;DHT22;67061;48.524;9.040;2024-02-21T00:04:17;2.60;99.90
77865;DHT22;67061;48.524;9.040;2024-02-21T00:06:44;2.60;99.90
77865;DHT22;67061;48.524;9.040;2024-02-21T00:09:11;2.60;99.90
77865;DHT22;67061;48.524;9.040;2024-02-21T00:11:38;2.60;99.90
77865;DHT22;67061;48.524;9.040;2024-02-21T00:14:05;2.60;99.90
77865;DHT22;67061;48.524;9.040;2024-02-21T00:16:33;2.60;99.90
77865;DHT22;67061;48.524;9.040;2024-02-21T00:19:00;2.50;99.90
77865;DHT22;67061;48.524;9.040;2024-02-21T00:21:27;2.50;99.90
77865;DHT22;67061;48.524;9.040;2024-02-21T00:23:54;2.50;99.90
77865;DHT22;67061;48.524;9.040;2024-02-21T00:26:21;2.50;99.90
77865;DHT22;67061;48.524;9.040;2024-02-21T00:28:48;2.60;99.90
77865;DHT22;67061;48.524;9.040;2024-02-21T00:31:15;2.60;99.90
77865;DHT22;67061;48.524;9.040;2024-02-21T00:33:43;2.70;99.90
77865;DHT22;67061;48.524;9.040;2024-02-21T00:36:10;2.70;99.90
77865;DHT22;67061;48.524;9.040;2024-02-21T00:38:37;2.60;99.90
77865;DHT22;67061;48.524;9.040;2024-02-21T00:41:04;2.60;99.90
77865;DHT22;67061;48.524;9.040;2024-02-21T00:43:31;2.50;99.90
77865;DHT22;67061;48.524;9.040;2024-02-21T00:45:58;2.50;99.90
77865;DHT22;67061;48.524;9.040;2024-02-21T00:48:25;2.50;99.90
77865;DHT22;67061;48.524;9.040;2024-02-21T00:50:53;2.50;99.90
77865;DHT22;67061;48.524;9.040;2024-02-21T00:53:20;2.50;99.90
77865;DHT22;67061;48.524;9.040;2024-02-21T00:55:47;2.50;99.90
77865;DHT22;67061;48.524;9.040;2024-02-21T00:58:14;2.50;99.90
77865;DHT22;67061;48.524;9.040;2024-02-21T01:00:41;2.50;99.90
77865;DHT22;67061;48.524;9.040;2024-02-21T01:03:09;2.50;99.90
77865;DHT22;67061;48.524;9.040;2024-02-21T01:05:36;2.50;99.90
77865;DHT22;67061;48.524;9.040;2024-02-21T01:08:05;2.50;99.90
77865;DHT22;67061;48.524;9.040;2024-02-21T01:10:32;2.60;99.90
77865;DHT22;67061;48.524;9.040;2024-02-21T01:12:59;2.60;99.90
77865;DHT22;67061;48.524;9.040;2024-02-21T01:15:26;2.60;99.90
77865;DHT22;67061;48.524;9.040;2024-02-21T01:17:53;2.60;99.90
77865;DHT22;67061;48.524;9.040;2024-02-21T01:20:21;2.60;99.90
77865;DHT22;67061;48.524;9.040;2024-02-21T01:22:48;2.70;99.90
77865;DHT22;67061;48.524;9.040;2024-02-21T01:25:16;2.70;99.90
77865;DHT22;67061;48.524;9.040;2024-02-21T01:27:43;2.70;99.90
77865;DHT22;67061;48.524;9.040;2024-02-21T01:30:11;2.70;99.90
77865;DHT22;67061;48.524;9.040;2024-02-21T01:32:38;2.70;99.90
77865;DHT22;67061;48.524;9.040;2024-02-21T01:35:05;2.70;99.90
77865;DHT22;67061;48.524;9.040;2024-02-21T01:37:32;2.70;99.90
77865;DHT22;67061;48.524;9.040;2024-02-21T01:39:59;2.70;99.90
77865;DHT22;67061;48.524;9.040;2024-02-21T01:42:27;2.70;99.90
77865;DHT22;67061;48.524;9.040;2024-02-21T01:44:54;2.70;99.90
77865;DHT22;67061;48.524;9.040;2024-02-21T01:47:21;2.70;99.90
77865;DHT22;67061;48.524;9.040;2024-02-21T01:49:49;2.70;99.90
77865;DHT22;67061;48.524;9.040;2024-02-21T01:52:17;2.70;99.90
77865;DHT22;67061;48.524;9.040;2024-02-21T01:54:44;2.80;99.90
77865;DHT22;67061;48.524;9.040;2024-02-21T01:57:13;2.80;99.90
77865;DHT22;67061;48.524;9.040;2024-02-21T01:59:42;2.80;99.90
77865;DHT22;67061;48.524;9.040;2024-02-21T02:02:09;2.80;99.90
77865;DHT22;67061;48.524;9.040;2024-02-21T02:04:38;2.80;99.90
77865;DHT22;67061;48.524;9.040;2024-02-21T02:07:07;2.80;99.90
77865;DHT22;67061;48.524;9.040;2024-02-21T02:09:34;2.80;99.90
77865;DHT22;67061;48.524;9.040;2024-02-21T02:12:02;2.80;99.90
77865;DHT22;67061;48.524;9.040;2024-02-21T02:14:29;2.80;99.90
77865;DHT22;67061;48.524;9.040;2024-02-21T02:16:57;2.80;99.90
77865;DHT22;67061;48.524;9.040;2024-02-21T02:19:25;2.80;99.90
77865;DHT22;67061;48.524;9.040;2024-02-21T02:22:03;2.80;99.90
77865;DHT22;67061;48.524;9.040;2024-02-21T02:24:36;2.80;99.90
77865;DHT22;67061;48.524;9.040;2024-02-21T02:27:03;2.80;99.90
77865;DHT22;67061;48.524;9.040;2024-02-21T02:29:32;2.80;99.90
77865;DHT22;67061;48.524;9.040;2024-02-21T02:31:59;2.70;99.90
77865;DHT22;67061;48.524;9.040;2024-02-21T02:34:26;2.70;99.90
77865;DHT22;67061;48.524;9.040;2024-02-21T02:36:52;2.50;99.90
77865;DHT22;67061;48.524;9.040;2024-02-21T02:39:20;2.50;99.90
77865;DHT22;67061;48.524;9.040;2024-02-21T02:41:48;2.50;99.90
77865;DHT22;67061;48.524;9.040;2024-02-21T02:44:15;2.60;99.90
77865;DHT22;67061;48.524;9.040;2024-02-21T02:46:42;2.70;99.90
77865;DHT22;67061;48.524;9.040;2024-02-21T02:49:09;2.80;99.90
77865;DHT22;67061;48.524;9.040;2024-02-21T02:51:36;2.80;99.90
77865;DHT22;67061;48.524;9.040;2024-02-21T02:54:03;2.80;99.90
77865;DHT22;67061;48.524;9.040;2024-02-21T02:56:30;2.90;99.90
77865;DHT22;67061;48.524;9.040;2024-02-21T02:58:58;2.90;99.90
77865;DHT22;67061;48.524;9.040;2024-02-21T03:01:25;2.90;99.90
77865;DHT22;67061;48.524;9.040;2024-02-21T03:03:52;2.90;99.90
77865;DHT22;67061;48.524;9.040;2024-02-21T03:06:20;2.90;99.90
77865;DHT22;67061;48.524;9.040;2024-02-21T03:08:47;2.90;99.90
77865;DHT22;67061;48.524;9.040;2024-02-21T03:11:14;2.90;99.90
77865;DHT22;67061;48.524;9.040;2024-02-21T03:13:41;3.00;99.90
77865;DHT22;67061;48.524;9.040;2024-02-21T03:16:10;3.00;99.90
77865;DHT22;67061;48.524;9.040;2024-02-21T03:18:37;3.00;99.90
77865;DHT22;67061;48.524;9.040;2024-02-21T03:21:04;2.90;99.90
77865;DHT22;67061;48.524;9.040;2024-02-21T03:23:31;3.00;99.90
77865;DHT22;67061;48.524;9.040;2024-02-21T03:25:58;3.10;99.90
77865;DHT22;67061;48.524;9.040;2024-02-21T03:28:25;3.10;99.90
77865;DHT22;67061;48.524;9.040;2024-02-21T03:30:52;3.10;99.90
77865;DHT22;67061;48.524;9.040;2024-02-21T03:33:21;3.10;99.90
77865;DHT22;67061;48.524;9.040;2024-02-21T03:35:49;3.10;99.90
77865;DHT22;67061;48.524;9.040;2024-02-21T03:38:16;3.10;99.90
77865;DHT22;67061;48.524;9.040;2024-02-21T03:40:42;3.10;99.90
77865;DHT22;67061;48.524;9.040;2024-02-21T03:43:09;3.10;99.90
77865;DHT22;67061;48.524;9.040;2024-02-21T03:45:36;3.10;99.90
77865;DHT22;67061;48.524;9.040;2024-02-21T03:48:04;3.10;99.90
77865;DHT22;67061;48.524;9.040;2024-02-21T03:50:32;3.10;99.90
77865;DHT22;67061;48.524;9.040;2024-02-21T03:52:59;3.10;99.90
77865;DHT22;67061;48.524;9.040;2024-02-21T03:55:26;3.10;99.90
77865;DHT22;67061;48.524;9.040;2024-02-21T03:57:53;3.10;99.90
77865;DHT22;67061;48.524;9.040;2024-02-21T04:00:20;3.00;99.90
77865;DHT22;67061;48.524;9.040;2024-02-21T04:02:47;3.10;99.90
77865;DHT22;67061;48.524;9.040;2024-02-21T04:05:15;3.00;99.90
77865;DHT22;67061;48.524;9.040;2024-02-21T04:07:44;3.00;99.90
77865;DHT22;67061;48.524;9.040;2024-02-21T04:10:11;3.10;99.90
77865;DHT22;67061;48.524;9.040;2024-02-21T04:12:39;3.10;99.90
77865;DHT22;67061;48.524;9.040;2024-02-21T04:15:06;3.10;99.90
77865;DHT22;67061;48.524;9.040;2024-02-21T04:17:34;3.10;99.90
77865;DHT22;67061;48.524;9.040;2024-02-21T04:20:05;3.10;99.90
77865;DHT22;67061;48.524;9.040;2024-02-21T04:22:33;3.10;99.90
77865;DHT22;67061;48.524;9.040;2024-02-21T04:25:02;3.00;99.90
77865;DHT22;67061;48.524;9.040;2024-02-21T04:27:29;2.90;99.90
77865;DHT22;67061;48.524;9.040;2024-02-21T04:29:56;2.90;99.90
77865;DHT22;67061;48.524;9.040;2024-02-21T04:32:23;2.80;99.90
77865;DHT22;67061;48.524;9.040;2024-02-21T04:34:50;2.80;99.90
77865;DHT22;67061;48.524;9.040;2024-02-21T04:37:17;2.80;99.90
77865;DHT22;67061;48.524;9.040;2024-02-21T04:39:44;2.70;99.90
77865;DHT22;67061;48.524;9.040;2024-02-21T04:42:13;2.70;99.90
77865;DHT22;67061;48.524;9.040;2024-02-21T04:44:40;2.70;99.90
77865;DHT22;67061;48.524;9.040;2024-02-21T04:47:07;2.60;99.90
77865;DHT22;67061;48.524;9.040;2024-02-21T04:49:34;2.50;99.90
77865;DHT22;67061;48.524;9.040;2024-02-21T04:52:01;2.50;99.90
77865;DHT22;67061;48.524;9.040;2024-02-21T04:54:28;2.40;99.90
77865;DHT22;67061;48.524;9.040;2024-02-21T04:56:55;2.40;99.90
77865;DHT22;67061;48.524;9.040;2024-02-21T04:59:23;2.30;99.90
77865;DHT22;67061;48.524;9.040;2024-02-21T05:01:50;2.30;99.90
77865;DHT22;67061;48.524;9.040;2024-02-21T05:04:17;2.30;99.90
77865;DHT22;67061;48.524;9.040;2024-02-21T05:06:43;2.20;99.90
77865;DHT22;67061;48.524;9.040;2024-02-21T05:09:10;2.10;99.90
77865;DHT22;67061;48.524;9.040;2024-02-21T05:11:37;2.10;99.90
77865;DHT22;67061;48.524;9.040;2024-02-21T05:14:04;2.10;99.90
77865;DHT22;67061;48.524;9.040;2024-02-21T05:16:33;2.00;99.90
77865;DHT22;67061;48.524;9.040;2024-02-21T05:19:00;2.00;99.90
77865;DHT22;67061;48.524;9.040;2024-02-21T05:21:29;2.00;99.90
77865;DHT22;67061;48.524;9.040;2024-02-21T05:23:56;1.90;99.90
77865;DHT22;67061;48.524;9.040;2024-02-21T05:26:24;1.80;99.90
77865;DHT22;67061;48.524;9.040;2024-02-21T05:28:51;1.80;99.90
77865;DHT22;67061;48.524;9.040;2024-02-21T05:31:19;1.80;99.90
77865;DHT22;67061;48.524;9.040;2024-02-21T05:33:47;1.80;99.90
77865;DHT22;67061;48.524;9.040;2024-02-21T05:36:15;1.80;99.90
77865;DHT22;67061;48.524;9.040;2024-02-21T05:38:42;1.80;99.90
77865;DHT22;67061;48.524;9.040;2024-02-21T05:41:09;1.80;99.90
77865;DHT22;67061;48.524;9.040;2024-02-21T05:43:36;1.70;99.90
77865;DHT22;67061;48.524;9.040;2024-02-21T05:46:03;1.70;99.90
77865;DHT22;67061;48.524;9.040;2024-02-21T05:48:30;1.70;99.90
77865;DHT22;67061;48.524;9.040;2024-02-21T05:51:01;1.70;99.90
77865;DHT22;67061;48.524;9.040;2024-02-21T05:53:28;1.60;99.90
77865;DHT22;67061;48.524;9.040;2024-02-21T05:55:55;1.60;99.90
77865;DHT22;67061;48.524;9.040;2024-02-21T05:58:23;1.60;99.90
77865;DHT22;67061;48.524;9.040;2024-02-21T06:00:49;1.60;99.90
77865;DHT22;67061;48.524;9.040;2024-02-21T06:03:16;1.60;99.90
77865;DHT22;67061;48.524;9.040;2024-02-21T06:05:43;1.70;99.90
77865;DHT22;67061;48.524;9.040;2024-02-21T06:08:12;1.70;99.90
77865;DHT22;67061;48.524;9.040;2024-02-21T06:10:38;1.70;99.90
77865;DHT22;67061;48.524;9.040;2024-02-21T06:13:05;1.70;99.90
77865;DHT22;67061;48.524;9.040;2024-02-21T06:15:32;1.70;99.90
77865;DHT22;67061;48.524;9.040;2024-02-21T06:17:59;1.70;99.90
77865;DHT22;67061;48.524;9.040;2024-02-21T06:20:26;1.60;99.90
77865;DHT22;67061;48.524;9.040;2024-02-21T06:22:53;1.60;99.90
77865;DHT22;67061;48.524;9.040;2024-02-21T06:25:21;1.50;99.90
77865;DHT22;67061;48.524;9.040;2024-02-21T06:27:48;1.50;99.90
77865;DHT22;67061;48.524;9.040;2024-02-21T06:30:15;1.40;99.90
77865;DHT22;67061;48.524;9.040;2024-02-21T06:32:42;1.40;99.90
77865;DHT22;67061;48.524;9.040;2024-02-21T06:35:09;1.40;99.90
77865;DHT22;67061;48.524;9.040;2024-02-21T06:37:36;1.40;99.90
77865;DHT22;67061;48.524;9.040;2024-02-21T06:40:04;1.40;99.90
77865;DHT22;67061;48.524;9.040;2024-02-21T06:42:33;1.40;99.90
77865;DHT22;67061;48.524;9.040;2024-02-21T06:45:00;1.30;99.90
77865;DHT22;67061;48.524;9.040;2024-02-21T06:47:27;1.30;99.90
77865;DHT22;67061;48.524;9.040;2024-02-21T06:49:53;1.30;99.90
77865;DHT22;67061;48.524;9.040;2024-02-21T06:52:20;1.30;99.90
77865;DHT22;67061;48.524;9.040;2024-02-21T06:54:48;1.40;99.90
77865;DHT22;67061;48.524;9.040;2024-02-21T06:57:36;1.40;99.90
77865;DHT22;67061;48.524;9.040;2024-02-21T07:00:04;1.50;99.90
77865;DHT22;67061;48.524;9.040;2024-02-21T07:02:34;1.50;99.90
77865;DHT22;67061;48.524;9.040;2024-02-21T07:05:01;1.50;99.90
77865;DHT22;67061;48.524;9.040;2024-02-21T07:07:28;1.60;99.90
77865;DHT22;67061;48.524;9.040;2024-02-21T07:09:55;1.60;99.90
77865;DHT22;67061;48.524;9.040;2024-02-21T07:12:22;1.70;99.90
77865;DHT22;67061;48.524;9.040;2024-02-21T07:14:50;1.70;99.90
77865;DHT22;67061;48.524;9.040;2024-02-21T07:17:17;1.80;99.90
77865;DHT22;67061;48.524;9.040;2024-02-21T07:19:44;1.80;99.90
77865;DHT22;67061;48.524;9.040;2024-02-21T07:22:11;1.90;99.90
77865;DHT22;67061;48.524;9.040;2024-02-21T07:24:38;2.00;99.90
77865;DHT22;67061;48.524;9.040;2024-02-21T07:27:05;2.10;99.90
77865;DHT22;67061;48.524;9.040;2024-02-21T07:29:32;2.20;99.90
77865;DHT22;67061;48.524;9.040;2024-02-21T07:32:00;2.30;99.90
77865;DHT22;67061;48.524;9.040;2024-02-21T07:34:27;2.40;99.90
77865;DHT22;67061;48.524;9.040;2024-02-21T07:36:54;2.50;99.90
77865;DHT22;67061;48.524;9.040;2024-02-21T07:39:21;2.50;99.90
77865;DHT22;67061;48.524;9.040;2024-02-21T07:41:48;2.70;99.90
77865;DHT22;67061;48.524;9.040;2024-02-21T07:44:15;2.80;99.90
77865;DHT22;67061;48.524;9.040;2024-02-21T07:46:42;2.90;99.90
77865;DHT22;67061;48.524;9.040;2024-02-21T07:49:10;3.00;99.90
77865;DHT22;67061;48.524;9.040;2024-02-21T07:51:37;3.10;99.90
77865;DHT22;67061;48.524;9.040;2024-02-21T07:54:04;3.20;99.90
77865;DHT22;67061;48.524;9.040;2024-02-21T07:56:31;3.30;99.90
77865;DHT22;67061;48.524;9.040;2024-02-21T07:58:58;3.40;99.90
77865;DHT22;67061;48.524;9.040;2024-02-21T08:01:25;3.50;99.90
77865;DHT22;67061;48.524;9.040;2024-02-21T08:03:52;3.50;99.90
77865;DHT22;67061;48.524;9.040;2024-02-21T08:06:21;3.60;99.90
77865;DHT22;67061;48.524;9.040;2024-02-21T08:08:48;3.70;99.90
77865;DHT22;67061;48.524;9.040;2024-02-21T08:11:17;3.70;99.90
77865;DHT22;67061;48.524;9.040;2024-02-21T08:13:44;3.90;99.90
77865;DHT22;67061;48.524;9.040;2024-02-21T08:16:11;3.90;99.90
77865;DHT22;67061;48.524;9.040;2024-02-21T08:18:38;4.00;99.90
77865;DHT22;67061;48.524;9.040;2024-02-21T08:21:05;4.10;99.90
77865;DHT22;67061;48.524;9.040;2024-02-21T08:23:34;4.20;99.90
77865;DHT22;67061;48.524;9.040;2024-02-21T08:26:03;4.30;99.90
77865;DHT22;67061;48.524;9.040;2024-02-21T08:28:29;4.40;99.90
77865;DHT22;67061;48.524;9.040;2024-02-21T08:30:56;4.50;99.90
77865;DHT22;67061;48.524;9.040;2024-02-21T08:33:22;4.70;99.90
77865;DHT22;67061;48.524;9.040;2024-02-21T08:35:51;4.70;99.90
77865;DHT22;67061;48.524;9.040;2024-02-21T08:38:18;4.90;99.90
77865;DHT22;67061;48.524;9.040;2024-02-21T08:40:46;5.00;99.90
77865;DHT22;67061;48.524;9.040;2024-02-21T08:43:13;5.10;99.90
77865;DHT22;67061;48.524;9.040;2024-02-21T08:45:40;5.20;99.90
77865;DHT22;67061;48.524;9.040;2024-02-21T08:48:07;5.30;99.90
77865;DHT22;67061;48.524;9.040;2024-02-21T08:50:34;5.30;99.90
77865;DHT22;67061;48.524;9.040;2024-02-21T08:53:02;5.40;99.90
77865;DHT22;67061;48.524;9.040;2024-02-21T08:55:29;5.50;99.90
77865;DHT22;67061;48.524;9.040;2024-02-21T08:57:57;5.50;99.90
77865;DHT22;67061;48.524;9.040;2024-02-21T09:00:24;5.70;99.90
77865;DHT22;67061;48.524;9.040;2024-02-21T09:02:52;5.70;99.90
77865;DHT22;67061;48.524;9.040;2024-02-21T09:05:21;5.80;99.90
77865;DHT22;67061;48.524;9.040;2024-02-21T09:07:48;5.90;99.90
77865;DHT22;67061;48.524;9.040;2024-02-21T09:10:16;5.90;99.90
77865;DHT22;67061;48.524;9.040;2024-02-21T09:12:43;6.00;99.90
77865;DHT22;67061;48.524;9.040;2024-02-21T09:15:11;6.10;99.90
77865;DHT22;67061;48.524;9.040;2024-02-21T09:17:38;6.20;99.90
77865;DHT22;67061;48.524;9.040;2024-02-21T09:20:07;6.30;99.90
77865;DHT22;67061;48.524;9.040;2024-02-21T09:22:37;6.30;99.90
77865;DHT22;67061;48.524;9.040;2024-02-21T09:25:06;6.40;99.90
77865;DHT22;67061;48.524;9.040;2024-02-21T09:27:33;6.40;99.90
77865;DHT22;67061;48.524;9.040;2024-02-21T09:30:00;6.50;99.90
77865;DHT22;67061;48.524;9.040;2024-02-21T09:32:31;6.60;99.90
77865;DHT22;67061;48.524;9.040;2024-02-21T09:34:59;6.60;99.90
77865;DHT22;67061;48.524;9.040;2024-02-21T09:37:26;6.70;99.90
77865;DHT22;67061;48.524;9.040;2024-02-21T09:39:52;6.90;99.90
77865;DHT22;67061;48.524;9.040;2024-02-21T09:42:20;7.00;99.90
77865;DHT22;67061;48.524;9.040;2024-02-21T09:44:48;7.00;98.50
77865;DHT22;67061;48.524;9.040;2024-02-21T09:47:19;7.20;97.90
77865;DHT22;67061;48.524;9.040;2024-02-21T09:49:48;7.40;96.20
77865;DHT22;67061;48.524;9.040;2024-02-21T09:52:15;7.50;95.80
77865;DHT22;67061;48.524;9.040;2024-02-21T09:54:43;7.60;95.70
77865;DHT22;67061;48.524;9.040;2024-02-21T09:57:10;7.80;93.90
77865;DHT22;67061;48.524;9.040;2024-02-21T09:59:39;7.90;92.90
77865;DHT22;67061;48.524;9.040;2024-02-21T10:02:07;8.00;91.10
77865;DHT22;67061;48.524;9.040;2024-02-21T10:04:34;8.10;91.40
77865;DHT22;67061;48.524;9.040;2024-02-21T10:07:03;8.20;92.20
77865;DHT22;67061;48.524;9.040;2024-02-21T10:09:30;8.30;91.60
77865;DHT22;67061;48.524;9.040;2024-02-21T10:12:07;8.30;90.20
77865;DHT22;67061;48.524;9.040;2024-02-21T10:14:34;8.40;89.60
77865;DHT22;67061;48.524;9.040;2024-02-21T10:17:01;8.60;89.70
77865;DHT22;67061;48.524;9.040;2024-02-21T10:19:30;8.80;86.70
77865;DHT22;67061;48.524;9.040;2024-02-21T10:22:03;9.00;87.50
77865;DHT22;67061;48.524;9.040;2024-02-21T10:24:30;9.20;84.70
77865;DHT22;67061;48.524;9.040;2024-02-21T10:27:07;9.20;83.70
77865;DHT22;67061;48.524;9.040;2024-02-21T10:29:36;9.40;83.70
77865;DHT22;67061;48.524;9.040;2024-02-21T10:32:08;9.50;82.10
77865;DHT22;67061;48.524;9.040;2024-02-21T10:34:37;9.50;82.40
77865;DHT22;67061;48.524;9.040;2024-02-21T10:37:07;9.70;80.50
77865;DHT22;67061;48.524;9.040;2024-02-21T10:39:35;9.80;78.80
77865;DHT22;67061;48.524;9.040;2024-02-21T10:42:03;10.00;79.30
77865;DHT22;67061;48.524;9.040;2024-02-21T10:44:32;10.10;79.10
77865;DHT22;67061;48.524;9.040;2024-02-21T10:47:02;10.20;77.10
77865;DHT22;67061;48.524;9.040;2024-02-21T10:49:32;10.30;76.40
77865;DHT22;67061;48.524;9.040;2024-02-21T10:52:14;10.40;76.40
77865;DHT22;67061;48.524;9.040;2024-02-21T10:54:44;10.50;75.50
77865;DHT22;67061;48.524;9.040;2024-02-21T10:57:12;10.60;74.70
77865;DHT22;67061;48.524;9.040;2024-02-21T10:59:40;10.70;72.90
77865;DHT22;67061;48.524;9.040;2024-02-21T11:02:07;10.70;72.30
77865;DHT22;67061;48.524;9.040;2024-02-21T11:04:37;10.80;72.40
77865;DHT22;67061;48.524;9.040;2024-02-21T11:07:06;10.90;71.60
77865;DHT22;67061;48.524;9.040;2024-02-21T11:09:34;11.00;70.90
77865;DHT22;67061;48.524;9.040;2024-02-21T11:12:03;10.90;70.80
77865;DHT22;67061;48.524;9.040;2024-02-21T11:14:34;11.00;70.70
77865;DHT22;67061;48.524;9.040;2024-02-21T11:17:03;11.00;70.20
77865;DHT22;67061;48.524;9.040;2024-02-21T11:19:40;11.00;69.60
77865;DHT22;67061;48.524;9.040;2024-02-21T11:22:16;11.10;70.40
77865;DHT22;67061;48.524;9.040;2024-02-21T11:24:43;11.20;69.60
77865;DHT22;67061;48.524;9.040;2024-02-21T11:27:12;11.20;69.30
77865;DHT22;67061;48.524;9.040;2024-02-21T11:29:40;11.30;70.50
77865;DHT22;67061;48.524;9.040;2024-02-21T11:32:09;11.40;68.70
77865;DHT22;67061;48.524;9.040;2024-02-21T11:34:37;11.30;68.20
77865;DHT22;67061;48.524;9.040;2024-02-21T11:37:14;11.10;68.50
77865;DHT22;67061;48.524;9.040;2024-02-21T11:39:45;11.30;68.00
77865;DHT22;67061;48.524;9.040;2024-02-21T11:42:12;11.30;68.00
77865;DHT22;67061;48.524;9.040;2024-02-21T11:44:39;11.30;68.00
77865;DHT22;67061;48.524;9.040;2024-02-21T11:47:08;11.30;68.80
77865;DHT22;67061;48.524;9.040;2024-02-21T11:49:37;11.40;67.90
77865;DHT22;67061;48.524;9.040;2024-02-21T11:52:05;11.40;68.00
77865;DHT22;67061;48.524;9.040;2024-02-21T11:54:34;11.30;67.80
77865;DHT22;67061;48.524;9.040;2024-02-21T11:57:01;11.40;67.20
77865;DHT22;67061;48.524;9.040;2024-02-21T11:59:30;11.40;67.20
77865;DHT22;67061;48.524;9.040;2024-02-21T12:01:58;11.50;66.30
77865;DHT22;67061;48.524;9.040;2024-02-21T12:04:25;11.50;66.90
77865;DHT22;67061;48.524;9.040;2024-02-21T12:06:53;11.70;65.30
77865;DHT22;67061;48.524;9.040;2024-02-21T12:09:20;11.90;65.50
77865;DHT22;67061;48.524;9.040;2024-02-21T12:11:58;12.00;64.40
77865;DHT22;67061;48.524;9.040;2024-02-21T12:14:28;12.10;64.20
77865;DHT22;67061;48.524;9.040;2024-02-21T12:16:56;12.10;64.00
77865;DHT22;67061;48.524;9.040;2024-02-21T12:19:23;12.10;63.90
77865;DHT22;67061;48.524;9.040;2024-02-21T12:21:50;12.30;63.70
77865;DHT22;67061;48.524;9.040;2024-02-21T12:24:21;12.30;63.30
77865;DHT22;67061;48.524;9.040;2024-02-21T12:26:48;12.50;63.20
77865;DHT22;67061;48.524;9.040;2024-02-21T12:29:16;12.50;62.60
77865;DHT22;67061;48.524;9.040;2024-02-21T12:31:44;12.50;62.80
77865;DHT22;67061;48.524;9.040;2024-02-21T12:34:11;12.50;62.70
77865;DHT22;67061;48.524;9.040;2024-02-21T12:36:41;12.30;62.80
77865;DHT22;67061;48.524;9.040;2024-02-21T12:39:08;12.30;62.80
77865;DHT22;67061;48.524;9.040;2024-02-21T12:41:35;12.30;63.10
77865;DHT22;67061;48.524;9.040;2024-02-21T12:44:04;12.30;63.60
77865;DHT22;67061;48.524;9.040;2024-02-21T12:46:34;12.30;63.70
77865;DHT22;67061;48.524;9.040;2024-02-21T12:49:01;12.30;63.70
77865;DHT22;67061;48.524;9.040;2024-02-21T12:51:28;12.30;63.30
77865;DHT22;67061;48.524;9.040;2024-02-21T12:53:56;12.20;64.40
77865;DHT22;67061;48.524;9.040;2024-02-21T12:56:24;12.30;64.00
77865;DHT22;67061;48.524;9.040;2024-02-21T12:58:52;12.40;64.00
77865;DHT22;67061;48.524;9.040;2024-02-21T13:01:20;12.20;63.70
77865;DHT22;67061;48.524;9.040;2024-02-21T13:03:48;12.10;64.30
77865;DHT22;67061;48.524;9.040;2024-02-21T13:06:15;12.20;64.10
77865;DHT22;67061;48.524;9.040;2024-02-21T13:08:44;12.30;64.00
77865;DHT22;67061;48.524;9.040;2024-02-21T13:11:12;12.30;64.00
77865;DHT22;67061;48.524;9.040;2024-02-21T13:13:39;12.40;64.00
77865;DHT22;67061;48.524;9.040;2024-02-21T13:16:07;12.50;64.20
77865;DHT22;67061;48.524;9.040;2024-02-21T13:18:35;12.50;64.00
77865;DHT22;67061;48.524;9.040;2024-02-21T13:21:05;12.50;64.10
77865;DHT22;67061;48.524;9.040;2024-02-21T13:23:32;12.50;64.40
77865;DHT22;67061;48.524;9.040;2024-02-21T13:25:59;12.50;63.90
77865;DHT22;67061;48.524;9.040;2024-02-21T13:28:26;12.50;64.40
77865;DHT22;67061;48.524;9.040;2024-02-21T13:30:53;12.70;63.50
77865;DHT22;67061;48.524;9.040;2024-02-21T13:33:20;12.70;62.90
77865;DHT22;67061;48.524;9.040;2024-02-21T13:35:47;12.80;62.90
77865;DHT22;67061;48.524;9.040;2024-02-21T13:38:16;12.90;62.70
77865;DHT22;67061;48.524;9.040;2024-02-21T13:40:44;12.80;63.80
77865;DHT22;67061;48.524;9.040;2024-02-21T13:43:12;12.80;63.20
77865;DHT22;67061;48.524;9.040;2024-02-21T13:45:39;12.70;62.50
77865;DHT22;67061;48.524;9.040;2024-02-21T13:48:08;12.80;62.50
77865;DHT22;67061;48.524;9.040;2024-02-21T13:50:37;12.80;62.30
77865;DHT22;67061;48.524;9.040;2024-02-21T13:53:09;12.70;63.00
77865;DHT22;67061;48.524;9.040;2024-02-21T13:55:37;12.70;62.30
77865;DHT22;67061;48.524;9.040;2024-02-21T13:58:06;12.50;62.80
77865;DHT22;67061;48.524;9.040;2024-02-21T14:00:34;12.60;63.60
77865;DHT22;67061;48.524;9.040;2024-02-21T14:03:02;12.60;63.50
77865;DHT22;67061;48.524;9.040;2024-02-21T14:05:29;12.60;63.00
77865;DHT22;67061;48.524;9.040;2024-02-21T14:07:59;12.60;62.70
77865;DHT22;67061;48.524;9.040;2024-02-21T14:10:26;12.60;62.20
77865;DHT22;67061;48.524;9.040;2024-02-21T14:12:55;12.60;62.50
77865;DHT22;67061;48.524;9.040;2024-02-21T14:15:22;12.60;62.50
77865;DHT22;67061;48.524;9.040;2024-02-21T14:17:50;12.50;62.50
77865;DHT22;67061;48.524;9.040;2024-02-21T14:20:17;12.50;62.20
77865;DHT22;67061;48.524;9.040;2024-02-21T14:22:44;12.50;61.60
77865;DHT22;67061;48.524;9.040;2024-02-21T14:25:11;12.50;63.80
77865;DHT22;67061;48.524;9.040;2024-02-21T14:27:38;12.50;61.90
77865;DHT22;67061;48.524;9.040;2024-02-21T14:30:07;12.50;61.80
77865;DHT22;67061;48.524;9.040;2024-02-21T14:32:36;12.50;62.50
77865;DHT22;67061;48.524;9.040;2024-02-21T14:35:03;12.50;63.70
77865;DHT22;67061;48.524;9.040;2024-02-21T14:37:31;12.50;62.20
77865;DHT22;67061;48.524;9.040;2024-02-21T14:39:58;12.50;60.80
77865;DHT22;67061;48.524;9.040;2024-02-21T14:42:26;12.50;60.70
77865;DHT22;67061;48.524;9.040;2024-02-21T14:44:52;12.50;60.60
77865;DHT22;67061;48.524;9.040;2024-02-21T14:47:21;12.50;60.50
77865;DHT22;67061;48.524;9.040;2024-02-21T14:49:48;12.50;61.10
77865;DHT22;67061;48.524;9.040;2024-02-21T14:52:15;12.50;60.40
77865;DHT22;67061;48.524;9.040;2024-02-21T14:54:43;12.40;60.20
77865;DHT22;67061;48.524;9.040;2024-02-21T14:57:14;12.30;59.60
77865;DHT22;67061;48.524;9.040;2024-02-21T14:59:41;12.30;60.20
77865;DHT22;67061;48.524;9.040;2024-02-21T15:02:08;12.20;60.60
77865;DHT22;67061;48.524;9.040;2024-02-21T15:04:37;12.20;60.70
77865;DHT22;67061;48.524;9.040;2024-02-21T15:07:04;12.10;62.40
77865;DHT22;67061;48.524;9.040;2024-02-21T15:09:31;12.10;61.50
77865;DHT22;67061;48.524;9.040;2024-02-21T15:11:59;12.00;61.50
77865;DHT22;67061;48.524;9.040;2024-02-21T15:14:26;12.00;61.20
77865;DHT22;67061;48.524;9.040;2024-02-21T15:16:55;12.00;62.00
77865;DHT22;67061;48.524;9.040;2024-02-21T15:19:22;12.00;62.90
77865;DHT22;67061;48.524;9.040;2024-02-21T15:21:51;11.90;63.30
77865;DHT22;67061;48.524;9.040;2024-02-21T15:24:19;11.90;63.50
77865;DHT22;67061;48.524;9.040;2024-02-21T15:26:46;11.90;64.30
77865;DHT22;67061;48.524;9.040;2024-02-21T15:29:13;11.90;63.40
77865;DHT22;67061;48.524;9.040;2024-02-21T15:31:40;11.90;63.90
77865;DHT22;67061;48.524;9.040;2024-02-21T15:34:23;11.80;65.10
77865;DHT22;67061;48.524;9.040;2024-02-21T15:36:51;11.70;65.10
77865;DHT22;67061;48.524;9.040;2024-02-21T15:39:18;11.70;65.50
77865;DHT22;67061;48.524;9.040;2024-02-21T15:41:45;11.70;66.20
77865;DHT22;67061;48.524;9.040;2024-02-21T15:44:12;11.60;66.60